Time;durP1;ratioP1;P1;durP2;ratioP2;P2;SDS_P1;SDS_P2;PMS_P1;PMS_P2;Temp;Humidity;BMP_temperature;BMP_pressure;BME280_temperature;BME280_humidity;BME280_pressure;Samples;Min_cycle;Max_cycle;Signal;HPM_P1;HPM_P2
2022/07/29 00:00:40;;;;;;;2.13;0.50;;;14.20;99.90;;;;;;4889051;29;20067;-81
2022/07/29 00:03:06;;;;;;;2.45;0.50;;;14.20;99.90;;;;;;4886127;29;20047;-81
2022/07/29 00:05:31;;;;;;;1.70;0.60;;;14.10;99.90;;;;;;4882989;29;20044;-79
2022/07/29 00:07:57;;;;;;;2.17;0.45;;;14.10;99.90;;;;;;4875536;29;20041;-79
2022/07/29 00:10:22;;;;;;;1.35;0.50;;;14.20;99.90;;;;;;4877793;29;20044;-80
2022/07/29 00:12:48;;;;;;;5.68;1.48;;;14.20;99.90;;;;;;4880905;29;20044;-79
2022/07/29 00:15:14;;;;;;;2.15;1.02;;;14.20;99.90;;;;;;4887574;29;20051;-80
2022/07/29 00:17:40;;;;;;;1.55;0.50;;;14.20;99.90;;;;;;4888654;29;20060;-80
2022/07/29 00:20:06;;;;;;;3.60;0.60;;;14.20;99.90;;;;;;4889516;29;20048;-80
2022/07/29 00:22:31;;;;;;;3.17;0.50;;;14.20;99.90;;;;;;4890147;29;20052;-80
2022/07/29 00:24:57;;;;;;;1.90;0.95;;;14.20;99.90;;;;;;4883270;29;20040;-80
2022/07/29 00:27:23;;;;;;;2.33;0.75;;;14.20;99.90;;;;;;4884926;29;20044;-80
2022/07/29 00:29:48;;;;;;;4.18;1.05;;;14.20;99.90;;;;;;4898547;29;20037;-80
2022/07/29 00:32:14;;;;;;;1.40;0.50;;;14.20;99.90;;;;;;4883724;29;20048;-80
2022/07/29 00:37:24;;;;;;;2.78;0.63;;;14.10;99.90;;;;;;4879255;29;20048;-80
2022/07/29 00:39:50;;;;;;;2.45;0.70;;;14.10;99.90;;;;;;4864582;29;20834;-80
2022/07/29 00:42:16;;;;;;;1.92;1.15;;;14.10;99.90;;;;;;4887044;29;20041;-80
2022/07/29 00:44:42;;;;;;;1.35;0.50;;;14.10;99.90;;;;;;4883857;29;20043;-80
2022/07/29 00:47:09;;;;;;;2.78;0.73;;;14.10;99.90;;;;;;4883977;29;20123;-81
2022/07/29 00:49:35;;;;;;;1.88;0.70;;;14.10;99.90;;;;;;4883787;29;20344;-80
2022/07/29 00:52:03;;;;;;;2.38;0.70;;;14.10;99.90;;;;;;4886375;29;20041;-81
2022/07/29 00:54:29;;;;;;;1.80;0.85;;;14.10;99.90;;;;;;4870336;29;20044;-81
2022/07/29 00:56:58;;;;;;;1.52;0.60;;;14.10;99.90;;;;;;4883703;29;20081;-81
2022/07/29 00:59:26;;;;;;;2.88;0.65;;;14.10;99.90;;;;;;4881722;29;20115;-81
2022/07/29 01:01:52;;;;;;;3.05;0.80;;;14.10;99.90;;;;;;4882935;29;20060;-81
2022/07/29 01:04:18;;;;;;;3.10;1.15;;;14.20;99.90;;;;;;4885110;29;20036;-81
2022/07/29 01:06:44;;;;;;;2.17;0.68;;;14.10;99.90;;;;;;4883811;29;20043;-81
2022/07/29 01:09:10;;;;;;;2.10;1.30;;;14.10;99.90;;;;;;4883802;29;20040;-81
2022/07/29 01:11:37;;;;;;;2.13;0.88;;;14.10;99.90;;;;;;4877659;29;20049;-80
2022/07/29 01:14:04;;;;;;;1.73;1.23;;;14.10;99.90;;;;;;4875043;29;20116;-80
2022/07/29 01:16:32;;;;;;;6.03;1.55;;;14.10;99.90;;;;;;4877661;29;20129;-79
2022/07/29 01:19:16;;;;;;;2.53;1.00;;;14.10;99.90;;;;;;4887997;29;20569;-79
2022/07/29 01:21:52;;;;;;;3.95;0.90;;;14.10;99.90;;;;;;4879594;29;20040;-79
2022/07/29 01:24:38;;;;;;;3.78;1.23;;;14.10;99.90;;;;;;4877381;29;20131;-80
2022/07/29 01:27:22;;;;;;;2.17;1.10;;;14.10;99.90;;;;;;4879549;29;20460;-80
2022/07/29 01:29:58;;;;;;;3.45;1.40;;;14.10;99.90;;;;;;4881254;29;20040;-80
2022/07/29 01:32:28;;;;;;;2.95;1.10;;;14.10;99.90;;;;;;4885586;29;20143;-80
2022/07/29 01:35:16;;;;;;;1.40;0.82;;;14.10;99.90;;;;;;4881953;29;20403;-80
2022/07/29 01:37:57;;;;;;;1.60;0.60;;;14.10;99.90;;;;;;4881520;29;20071;-80
2022/07/29 01:40:35;;;;;;;2.22;0.73;;;14.10;99.90;;;;;;4881608;29;20456;-80
2022/07/29 01:43:14;;;;;;;2.45;0.85;;;14.10;99.90;;;;;;4881328;29;20049;-80
2022/07/29 01:46:01;;;;;;;1.65;1.10;;;14.10;99.90;;;;;;4877288;29;20458;-81
2022/07/29 01:48:47;;;;;;;2.88;0.95;;;14.10;99.90;;;;;;4893164;29;20049;-80
2022/07/29 01:51:19;;;;;;;1.90;0.70;;;14.10;99.90;;;;;;4882892;29;20040;-80
2022/07/29 01:54:11;;;;;;;2.83;1.30;;;14.10;99.90;;;;;;4880765;29;20408;-79
2022/07/29 01:56:38;;;;;;;2.70;0.98;;;14.10;99.90;;;;;;4835820;29;20056;-79
2022/07/29 01:59:07;;;;;;;3.13;1.05;;;14.10;99.90;;;;;;4871974;29;20480;-80
2022/07/29 02:01:34;;;;;;;2.38;0.80;;;14.00;99.90;;;;;;4890695;29;20049;-79
2022/07/29 02:04:05;;;;;;;1.52;1.23;;;14.10;99.90;;;;;;4893741;29;20040;-81
2022/07/29 02:06:33;;;;;;;2.03;0.93;;;14.00;99.90;;;;;;4897774;29;20048;-81
2022/07/29 02:08:59;;;;;;;1.48;0.70;;;14.10;99.90;;;;;;4900108;29;20045;-81
2022/07/29 02:11:25;;;;;;;5.00;0.77;;;14.10;99.90;;;;;;4898862;29;20460;-81
2022/07/29 02:13:54;;;;;;;2.17;0.80;;;14.10;99.90;;;;;;4884510;29;20128;-81
2022/07/29 02:16:22;;;;;;;2.67;1.25;;;14.00;99.90;;;;;;4899793;29;20046;-81
2022/07/29 02:18:52;;;;;;;3.75;1.20;;;14.00;99.90;;;;;;4884232;29;20068;-81
2022/07/29 02:21:22;;;;;;;2.38;1.20;;;14.10;99.90;;;;;;4891877;29;20045;-79
2022/07/29 02:23:49;;;;;;;3.25;0.98;;;14.00;99.90;;;;;;4891674;29;20036;-79
2022/07/29 02:26:17;;;;;;;3.05;0.80;;;14.00;99.90;;;;;;4889477;29;20060;-80
2022/07/29 02:28:44;;;;;;;3.05;1.10;;;14.00;99.90;;;;;;4890836;29;20159;-79
2022/07/29 02:31:12;;;;;;;1.60;0.70;;;14.00;99.90;;;;;;4889307;29;20100;-80
2022/07/29 02:33:40;;;;;;;2.47;0.70;;;14.00;99.90;;;;;;4890636;29;20083;-80
2022/07/29 02:36:06;;;;;;;2.30;0.63;;;14.00;99.90;;;;;;4891323;29;20063;-80
2022/07/29 02:38:53;;;;;;;3.47;1.50;;;14.00;99.90;;;;;;4890824;29;20048;-80
2022/07/29 02:41:24;;;;;;;2.20;0.75;;;14.00;99.90;;;;;;4889322;29;20143;-79
2022/07/29 02:43:55;;;;;;;3.53;1.08;;;14.00;99.90;;;;;;4892871;29;20048;-80
2022/07/29 02:46:28;;;;;;;2.70;0.75;;;14.10;99.90;;;;;;4895103;29;20075;-80
2022/07/29 02:49:09;;;;;;;1.65;0.50;;;14.10;99.90;;;;;;4897185;29;20711;-80
2022/07/29 02:51:49;;;;;;;3.40;0.80;;;14.00;99.90;;;;;;4893664;29;20037;-81
2022/07/29 02:54:25;;;;;;;1.52;0.70;;;14.00;99.90;;;;;;4889211;29;20096;-80
2022/07/29 02:56:55;;;;;;;2.00;1.13;;;14.00;99.90;;;;;;4894975;29;20044;-80
2022/07/29 02:59:26;;;;;;;5.88;0.93;;;14.00;99.90;;;;;;4896454;29;20077;-80
2022/07/29 03:01:53;;;;;;;1.98;0.60;;;13.90;99.90;;;;;;4896453;29;20124;-81
2022/07/29 03:04:21;;;;;;;3.03;0.50;;;14.00;99.90;;;;;;4891676;29;20041;-81
2022/07/29 03:06:48;;;;;;;1.75;0.80;;;14.00;99.90;;;;;;4898072;29;20052;-81
2022/07/29 03:09:14;;;;;;;1.90;0.77;;;14.00;99.90;;;;;;4896880;29;20395;-81
2022/07/29 03:11:41;;;;;;;3.45;0.70;;;14.00;99.90;;;;;;4885313;29;20041;-81
2022/07/29 03:14:07;;;;;;;1.85;0.90;;;14.00;99.90;;;;;;4885761;29;20040;-81
2022/07/29 03:16:36;;;;;;;2.30;0.82;;;14.00;99.90;;;;;;4901818;29;20040;-81
2022/07/29 03:19:03;;;;;;;3.25;1.48;;;14.10;99.90;;;;;;4901123;29;20045;-81
2022/07/29 03:21:28;;;;;;;2.35;0.82;;;14.00;99.90;;;;;;4899899;29;20057;-81
2022/07/29 03:23:54;;;;;;;2.45;0.60;;;14.00;99.90;;;;;;4899142;29;20047;-81
2022/07/29 03:26:19;;;;;;;4.88;0.90;;;14.00;99.90;;;;;;4897244;29;20132;-81
2022/07/29 03:28:45;;;;;;;4.00;0.93;;;14.00;99.90;;;;;;4903411;29;20056;-81
2022/07/29 03:31:10;;;;;;;6.07;1.20;;;14.00;99.90;;;;;;4900318;29;20095;-81
2022/07/29 03:33:36;;;;;;;2.92;0.88;;;14.00;99.90;;;;;;4900545;29;20421;-81
2022/07/29 03:36:02;;;;;;;2.35;0.70;;;14.00;99.90;;;;;;4895269;29;20100;-81
2022/07/29 03:38:30;;;;;;;2.20;0.63;;;14.00;99.90;;;;;;4890543;29;20099;-81
2022/07/29 03:41:01;;;;;;;2.65;0.82;;;14.00;99.90;;;;;;4901789;29;20406;-81
2022/07/29 03:43:31;;;;;;;2.88;0.85;;;14.00;99.90;;;;;;4902036;29;20045;-81
2022/07/29 03:45:59;;;;;;;2.33;0.60;;;14.00;99.90;;;;;;4887395;29;20071;-81
2022/07/29 03:48:29;;;;;;;2.10;0.75;;;13.90;99.90;;;;;;4869863;29;20071;-81
2022/07/29 03:50:55;;;;;;;1.73;0.55;;;13.90;99.90;;;;;;4883458;29;20143;-81
2022/07/29 03:53:21;;;;;;;2.42;0.85;;;13.90;99.90;;;;;;4885457;29;20033;-81
2022/07/29 03:55:51;;;;;;;2.80;0.60;;;13.90;99.90;;;;;;4884424;29;20059;-81
2022/07/29 03:58:19;;;;;;;3.40;1.00;;;13.90;99.90;;;;;;4878632;29;20142;-79
2022/07/29 04:00:45;;;;;;;2.08;0.85;;;13.90;99.90;;;;;;4878773;29;20041;-80
2022/07/29 04:03:10;;;;;;;1.77;0.85;;;13.90;99.90;;;;;;4875706;29;20073;-80
2022/07/29 04:05:36;;;;;;;3.28;0.73;;;13.90;99.90;;;;;;4875288;29;20041;-79
2022/07/29 04:08:02;;;;;;;3.63;0.60;;;14.00;99.90;;;;;;4877077;29;20051;-79
2022/07/29 04:10:28;;;;;;;2.97;1.10;;;14.00;99.90;;;;;;4882828;29;20306;-80
2022/07/29 04:12:53;;;;;;;2.25;0.55;;;13.90;99.90;;;;;;4881410;29;20048;-79
2022/07/29 04:15:19;;;;;;;3.40;0.55;;;14.00;99.90;;;;;;4879505;29;20421;-80
2022/07/29 04:17:45;;;;;;;3.90;0.77;;;14.00;99.90;;;;;;4898126;29;20064;-79
2022/07/29 04:20:13;;;;;;;3.40;0.70;;;14.00;99.90;;;;;;4881715;29;20095;-80
2022/07/29 04:22:39;;;;;;;5.22;1.20;;;14.00;99.90;;;;;;4880887;29;20051;-80
2022/07/29 04:25:05;;;;;;;1.10;0.50;;;14.10;99.90;;;;;;4880375;29;20150;-80
2022/07/29 04:27:31;;;;;;;2.05;0.60;;;14.10;99.90;;;;;;4877841;29;20132;-79
2022/07/29 04:29:56;;;;;;;3.22;0.82;;;14.10;99.90;;;;;;4876062;29;20123;-80
2022/07/29 04:32:22;;;;;;;4.10;1.02;;;14.10;99.90;;;;;;4875718;29;20080;-80
2022/07/29 04:34:47;;;;;;;5.65;1.05;;;14.10;99.90;;;;;;4883750;29;20044;-81
2022/07/29 04:37:13;;;;;;;1.80;0.57;;;14.10;99.90;;;;;;4885228;29;20049;-81
2022/07/29 04:39:38;;;;;;;3.83;1.17;;;14.10;99.90;;;;;;4887169;29;20068;-81
2022/07/29 04:42:04;;;;;;;3.33;0.75;;;14.20;99.90;;;;;;4885891;29;20072;-81
2022/07/29 04:44:30;;;;;;;2.70;0.60;;;14.20;99.90;;;;;;4888417;29;20047;-81
2022/07/29 04:46:57;;;;;;;3.55;1.08;;;14.20;99.90;;;;;;4887430;29;20524;-80
2022/07/29 04:49:23;;;;;;;3.08;0.68;;;14.20;99.90;;;;;;4888944;29;20032;-81
2022/07/29 04:51:48;;;;;;;2.83;1.13;;;14.30;99.90;;;;;;4887297;29;20040;-81
2022/07/29 04:54:14;;;;;;;1.77;1.05;;;14.30;99.90;;;;;;4888035;29;20064;-81
2022/07/29 04:56:39;;;;;;;1.98;0.68;;;14.40;99.90;;;;;;4887879;29;20489;-81
2022/07/29 04:59:05;;;;;;;3.10;0.80;;;14.50;99.90;;;;;;4889151;29;20036;-81
2022/07/29 05:01:30;;;;;;;4.82;1.27;;;14.50;99.90;;;;;;4883778;29;20108;-81
2022/07/29 05:03:56;;;;;;;3.13;1.20;;;14.60;99.90;;;;;;4884851;29;20036;-81
2022/07/29 05:06:21;;;;;;;3.08;1.20;;;14.60;99.90;;;;;;4886680;29;20032;-81
2022/07/29 05:08:47;;;;;;;2.60;0.80;;;14.70;99.90;;;;;;4884524;29;20063;-81
2022/07/29 05:11:13;;;;;;;2.38;1.17;;;14.80;99.90;;;;;;4885331;29;20044;-81
2022/07/29 05:13:39;;;;;;;6.13;1.13;;;14.80;99.90;;;;;;4880350;29;20045;-79
2022/07/29 05:16:04;;;;;;;2.38;0.65;;;14.90;99.90;;;;;;4869045;29;20060;-80
2022/07/29 05:18:30;;;;;;;1.55;0.50;;;15.00;99.90;;;;;;4881149;29;20108;-80
2022/07/29 05:20:56;;;;;;;4.95;0.70;;;15.00;99.90;;;;;;4887171;29;20101;-81
2022/07/29 05:23:21;;;;;;;3.00;0.68;;;15.10;99.90;;;;;;4883099;29;20048;-81
2022/07/29 05:25:47;;;;;;;3.53;0.80;;;15.10;99.90;;;;;;4887184;29;20064;-80
2022/07/29 05:28:12;;;;;;;2.00;0.50;;;15.20;99.90;;;;;;4883606;29;20539;-80
2022/07/29 05:30:38;;;;;;;2.88;1.10;;;15.20;99.90;;;;;;4886411;29;20055;-80
2022/07/29 05:33:04;;;;;;;2.30;0.73;;;15.30;99.90;;;;;;4885639;29;20550;-81
2022/07/29 05:35:29;;;;;;;1.83;0.45;;;15.30;99.90;;;;;;4885049;29;20044;-80
2022/07/29 05:37:55;;;;;;;3.22;0.40;;;15.40;99.90;;;;;;4882149;29;20120;-80
2022/07/29 05:40:20;;;;;;;4.60;0.50;;;15.40;99.90;;;;;;4880142;29;20044;-80
2022/07/29 05:42:46;;;;;;;2.50;0.55;;;15.50;99.90;;;;;;4878761;29;20049;-80
2022/07/29 05:45:11;;;;;;;3.42;0.57;;;15.50;99.90;;;;;;4865375;29;20586;-80
2022/07/29 05:47:37;;;;;;;3.50;1.08;;;15.60;99.90;;;;;;4883016;29;20123;-80
2022/07/29 05:50:04;;;;;;;1.30;0.40;;;15.60;99.90;;;;;;4881846;29;20119;-80
2022/07/29 05:52:29;;;;;;;2.17;0.68;;;15.60;99.90;;;;;;4880254;29;20072;-81
2022/07/29 05:54:56;;;;;;;2.47;0.98;;;15.60;99.90;;;;;;4884524;29;20056;-81
2022/07/29 05:57:23;;;;;;;3.08;0.70;;;15.60;99.90;;;;;;4881632;29;20397;-81
2022/07/29 05:59:49;;;;;;;2.60;0.80;;;15.70;99.90;;;;;;4895120;29;20052;-80
2022/07/29 06:02:15;;;;;;;1.67;0.43;;;15.70;99.90;;;;;;4885039;29;20488;-80
2022/07/29 06:04:41;;;;;;;3.50;0.30;;;15.60;99.90;;;;;;4884442;29;20057;-81
2022/07/29 06:07:06;;;;;;;3.67;0.70;;;15.70;99.90;;;;;;4893091;29;20037;-80
2022/07/29 06:09:33;;;;;;;4.32;0.85;;;15.70;99.90;;;;;;4883826;29;20137;-80
2022/07/29 06:11:58;;;;;;;2.53;0.40;;;15.70;99.90;;;;;;4880604;29;20068;-80
2022/07/29 06:14:25;;;;;;;3.90;0.93;;;15.60;99.90;;;;;;4856624;29;20124;-81
2022/07/29 06:16:51;;;;;;;4.13;1.13;;;15.70;99.90;;;;;;4882016;29;20119;-80
2022/07/29 06:19:16;;;;;;;3.25;0.90;;;15.70;99.90;;;;;;4878290;29;20088;-80
2022/07/29 06:21:43;;;;;;;3.63;0.50;;;15.80;99.90;;;;;;4883533;29;20041;-81
2022/07/29 06:24:10;;;;;;;11.20;0.85;;;15.90;99.90;;;;;;4880510;29;20051;-80
2022/07/29 06:26:36;;;;;;;4.18;0.75;;;16.00;99.90;;;;;;4865853;29;20044;-81
2022/07/29 06:29:01;;;;;;;2.17;0.40;;;16.10;99.90;;;;;;4881655;29;20044;-80
2022/07/29 06:31:27;;;;;;;1.48;0.30;;;16.20;99.90;;;;;;4882428;29;20043;-80
2022/07/29 06:33:52;;;;;;;2.08;0.40;;;16.30;99.90;;;;;;4881418;29;20088;-80
2022/07/29 06:36:18;;;;;;;3.67;0.50;;;16.50;99.90;;;;;;4883595;29;20048;-80
2022/07/29 06:38:43;;;;;;;4.22;0.43;;;16.60;99.90;;;;;;4885063;29;20560;-80
2022/07/29 06:41:12;;;;;;;1.88;0.65;;;16.60;99.90;;;;;;4885401;29;20044;-81
2022/07/29 06:43:41;;;;;;;1.65;0.57;;;16.60;99.90;;;;;;4881556;29;20049;-81
2022/07/29 06:46:19;;;;;;;1.42;0.68;;;16.70;99.90;;;;;;4890340;29;20048;-81
2022/07/29 06:48:47;;;;;;;5.82;0.50;;;16.70;99.90;;;;;;4886208;29;20044;-82
2022/07/29 06:51:13;;;;;;;3.83;0.98;;;16.80;99.90;;;;;;4894599;29;20036;-81
2022/07/29 06:53:39;;;;;;;1.63;0.70;;;16.80;99.90;;;;;;4886235;29;20319;-81
2022/07/29 06:56:08;;;;;;;2.80;0.50;;;16.90;99.90;;;;;;4903361;29;20044;-80
2022/07/29 06:58:33;;;;;;;2.95;0.60;;;16.90;99.90;;;;;;4888051;29;20084;-80
2022/07/29 07:01:02;;;;;;;3.42;0.50;;;16.90;99.90;;;;;;4863935;29;20060;-80
2022/07/29 07:03:28;;;;;;;1.75;0.60;;;17.00;99.90;;;;;;4870098;29;20132;-80
2022/07/29 07:05:54;;;;;;;2.95;0.90;;;17.00;99.90;;;;;;4869463;29;20412;-80
2022/07/29 07:08:21;;;;;;;3.15;0.88;;;17.00;99.90;;;;;;4853852;29;20543;-80
2022/07/29 07:10:48;;;;;;;2.35;0.50;;;17.00;99.90;;;;;;4885050;29;20060;-80
2022/07/29 07:13:14;;;;;;;2.15;0.70;;;17.10;99.90;;;;;;4888194;29;20051;-80
2022/07/29 07:15:40;;;;;;;1.73;0.73;;;17.10;99.90;;;;;;4888334;29;20496;-81
2022/07/29 07:18:06;;;;;;;4.45;0.95;;;17.10;99.90;;;;;;4887018;29;20056;-80
2022/07/29 07:20:33;;;;;;;2.92;0.60;;;17.30;99.90;;;;;;4872925;29;20048;-80
2022/07/29 07:22:59;;;;;;;3.25;0.50;;;17.40;99.90;;;;;;4896651;29;20068;-81
2022/07/29 07:25:25;;;;;;;2.65;0.50;;;17.40;99.90;;;;;;4890940;29;20537;-80
2022/07/29 07:27:50;;;;;;;1.98;0.70;;;17.50;99.90;;;;;;4896569;29;20076;-81
2022/07/29 07:30:16;;;;;;;3.90;1.08;;;17.60;99.90;;;;;;4882576;29;20067;-81
2022/07/29 07:32:42;;;;;;;2.42;0.73;;;17.70;99.90;;;;;;4889289;29;20044;-81
2022/07/29 07:35:09;;;;;;;2.58;1.00;;;17.80;99.90;;;;;;4887293;29;20107;-81
2022/07/29 07:37:34;;;;;;;2.83;0.50;;;17.80;99.90;;;;;;4908285;29;21369;-80
2022/07/29 07:40:00;;;;;;;2.80;0.60;;;17.80;99.90;;;;;;4868506;29;20392;-81
2022/07/29 07:42:26;;;;;;;2.70;0.52;;;17.90;99.90;;;;;;4883325;29;20041;-81
2022/07/29 07:44:52;;;;;;;4.50;0.50;;;18.00;99.90;;;;;;4885462;29;20376;-81
2022/07/29 07:47:19;;;;;;;2.78;1.00;;;18.00;99.90;;;;;;4880141;29;20128;-80
2022/07/29 07:49:48;;;;;;;2.92;0.60;;;18.00;99.90;;;;;;4881429;29;20441;-81
2022/07/29 07:52:16;;;;;;;4.55;1.48;;;18.00;99.90;;;;;;4885143;29;20040;-80
2022/07/29 07:54:42;;;;;;;2.78;0.47;;;18.10;99.90;;;;;;4876451;29;20053;-79
2022/07/29 07:57:08;;;;;;;3.10;0.50;;;18.20;99.90;;;;;;4879331;29;20051;-80
2022/07/29 07:59:34;;;;;;;2.60;0.50;;;18.20;99.90;;;;;;4877025;29;20049;-80
2022/07/29 08:02:00;;;;;;;3.90;0.65;;;18.40;99.90;;;;;;4894120;29;20040;-81
2022/07/29 08:04:26;;;;;;;4.28;0.93;;;18.50;99.90;;;;;;4898897;29;20044;-82
2022/07/29 08:06:54;;;;;;;3.25;0.65;;;18.70;99.90;;;;;;4918380;29;20060;-82
2022/07/29 08:09:20;;;;;;;3.45;0.50;;;18.80;99.90;;;;;;4897507;29;20100;-81
2022/07/29 08:11:45;;;;;;;4.10;0.93;;;19.00;99.90;;;;;;4903581;29;20107;-81
2022/07/29 08:14:11;;;;;;;2.42;0.75;;;19.20;99.90;;;;;;4901657;29;20078;-82
2022/07/29 08:16:36;;;;;;;3.35;0.60;;;19.30;99.90;;;;;;4914166;29;20067;-82
2022/07/29 08:19:02;;;;;;;4.45;0.50;;;19.30;99.90;;;;;;4886941;29;20048;-81
2022/07/29 08:21:28;;;;;;;4.60;0.70;;;19.40;99.90;;;;;;4903591;29;20119;-81
2022/07/29 08:24:42;;;;;;;3.25;0.40;;;19.60;99.90;;;;;;4902435;29;20136;-82
2022/07/29 08:26:40;;;;;;;4.95;0.60;;;19.70;99.90;;;;;;4884471;29;20053;-81
2022/07/29 08:29:05;;;;;;;2.60;0.60;;;19.70;99.90;;;;;;4899349;29;20407;-81
2022/07/29 08:31:31;;;;;;;3.90;0.88;;;19.80;99.90;;;;;;4897905;29;20044;-81
2022/07/29 08:33:59;;;;;;;3.65;1.38;;;19.90;99.90;;;;;;4902666;29;20078;-81
2022/07/29 08:36:25;;;;;;;3.03;0.93;;;19.90;99.90;;;;;;4884736;29;20081;-81
2022/07/29 08:38:52;;;;;;;6.28;1.35;;;19.90;99.90;;;;;;4883701;29;20052;-81
2022/07/29 08:41:19;;;;;;;4.65;0.57;;;19.80;99.90;;;;;;4884627;29;20045;-82
2022/07/29 08:43:45;;;;;;;2.13;0.77;;;19.90;99.90;;;;;;4890572;29;20068;-81
2022/07/29 08:46:10;;;;;;;3.40;0.70;;;19.90;99.90;;;;;;4898033;29;20445;-82
2022/07/29 08:48:36;;;;;;;3.08;0.93;;;19.80;99.90;;;;;;4895937;29;20048;-81
2022/07/29 08:51:02;;;;;;;1.20;0.63;;;19.70;99.90;;;;;;4894295;29;20037;-81
2022/07/29 08:53:28;;;;;;;1.50;0.73;;;19.70;99.90;;;;;;4898207;29;20395;-81
2022/07/29 08:55:54;;;;;;;2.97;0.70;;;19.40;99.90;;;;;;4896277;29;20044;-81
2022/07/29 08:58:21;;;;;;;1.95;0.70;;;19.40;99.90;;;;;;4913692;29;20146;-82
2022/07/29 09:00:53;;;;;;;2.15;1.20;;;19.40;99.90;;;;;;4881897;29;20056;-82
2022/07/29 09:03:20;;;;;;;1.23;0.57;;;19.50;99.90;;;;;;4911242;29;20048;-81
2022/07/29 09:05:46;;;;;;;3.60;1.00;;;19.60;99.90;;;;;;4898050;29;20043;-81
2022/07/29 09:08:14;;;;;;;1.30;0.50;;;19.70;99.90;;;;;;4879684;29;20037;-81
2022/07/29 09:10:39;;;;;;;9.40;0.98;;;19.70;99.90;;;;;;4908138;29;20037;-81
2022/07/29 09:13:05;;;;;;;4.25;1.25;;;19.90;99.90;;;;;;4906697;29;20133;-81
2022/07/29 09:15:31;;;;;;;4.07;0.88;;;20.10;99.90;;;;;;4901186;29;20052;-81
2022/07/29 09:17:58;;;;;;;1.15;0.63;;;20.30;99.90;;;;;;4897386;29;20064;-82
2022/07/29 09:20:25;;;;;;;3.25;0.80;;;20.60;99.90;;;;;;4897547;29;20418;-80
2022/07/29 09:22:53;;;;;;;4.07;0.65;;;20.60;99.90;;;;;;4891404;29;20102;-81
2022/07/29 09:25:34;;;;;;;1.50;0.60;;;20.80;99.90;;;;;;4893428;29;20040;-80
2022/07/29 09:28:17;;;;;;;2.72;1.23;;;21.00;99.90;;;;;;4892795;29;20041;-81
2022/07/29 09:31:00;;;;;;;4.40;0.75;;;21.30;99.90;;;;;;4891393;29;20045;-80
2022/07/29 09:33:38;;;;;;;3.22;1.13;;;21.70;99.90;;;;;;4895782;29;20052;-81
2022/07/29 09:36:06;;;;;;;2.20;0.95;;;22.10;99.90;;;;;;4891147;29;20445;-82
2022/07/29 09:38:34;;;;;;;4.28;0.80;;;22.20;99.90;;;;;;4916982;29;20072;-81
2022/07/29 09:41:01;;;;;;;4.95;0.70;;;22.20;99.90;;;;;;4913851;29;20456;-82
2022/07/29 09:43:27;;;;;;;2.78;1.13;;;22.20;99.90;;;;;;4897286;29;20076;-82
2022/07/29 09:45:53;;;;;;;3.22;1.08;;;22.30;99.90;;;;;;4901962;29;20096;-81
2022/07/29 09:48:24;;;;;;;4.00;1.20;;;22.40;99.90;;;;;;4903013;29;20341;-81
2022/07/29 09:50:50;;;;;;;7.82;3.97;;;22.40;99.90;;;;;;4887919;29;20045;-81
2022/07/29 09:53:37;;;;;;;3.42;1.02;;;22.30;99.90;;;;;;4865274;29;20049;-82
2022/07/29 09:56:03;;;;;;;3.78;0.70;;;22.20;99.90;;;;;;4878496;29;20095;-82
2022/07/29 09:58:29;;;;;;;4.53;1.00;;;22.10;99.90;;;;;;4883169;29;20040;-82
2022/07/29 10:00:56;;;;;;;2.53;0.85;;;22.00;99.90;;;;;;4893401;29;20047;-82
2022/07/29 10:03:22;;;;;;;3.58;0.73;;;22.00;99.90;;;;;;4885491;29;20119;-82
2022/07/29 10:06:11;;;;;;;4.55;0.57;;;22.10;99.90;;;;;;4903340;29;20051;-82
2022/07/29 10:08:37;;;;;;;3.38;1.17;;;22.20;99.90;;;;;;4900519;29;20075;-81
2022/07/29 10:11:17;;;;;;;4.78;0.68;;;22.20;99.90;;;;;;4913294;29;20032;-82
2022/07/29 10:13:45;;;;;;;3.13;0.80;;;22.30;99.90;;;;;;4881033;29;20412;-82
2022/07/29 10:16:12;;;;;;;4.57;0.68;;;22.40;99.90;;;;;;4901310;29;20044;-81
2022/07/29 10:18:39;;;;;;;1.63;0.73;;;22.50;99.90;;;;;;4890035;29;20044;-80
2022/07/29 10:21:05;;;;;;;2.75;0.90;;;22.60;99.90;;;;;;4898253;29;20054;-80
2022/07/29 10:23:31;;;;;;;5.30;1.00;;;22.60;99.90;;;;;;4899747;29;20131;-80
2022/07/29 10:25:57;;;;;;;4.03;1.15;;;22.50;99.90;;;;;;4892980;29;20119;-80
2022/07/29 10:28:23;;;;;;;3.63;0.80;;;22.50;99.90;;;;;;4882115;29;20449;-80
2022/07/29 10:30:51;;;;;;;3.10;0.88;;;22.60;99.90;;;;;;4898146;29;20054;-80
2022/07/29 10:33:21;;;;;;;5.90;1.27;;;22.70;99.90;;;;;;4890255;29;20143;-80
2022/07/29 10:36:02;;;;;;;4.22;1.20;;;22.70;99.90;;;;;;4895790;29;20424;-80
2022/07/29 10:38:42;;;;;;;2.55;0.85;;;22.70;99.90;;;;;;4894256;29;20126;-82
2022/07/29 10:41:26;;;;;;;3.97;0.95;;;22.70;99.90;;;;;;4915427;29;20044;-82
2022/07/29 10:43:59;;;;;;;3.95;1.23;;;22.60;99.90;;;;;;4878312;29;20044;-82
2022/07/29 10:46:26;;;;;;;4.13;0.90;;;22.60;99.90;;;;;;4900460;29;20128;-81
2022/07/29 10:49:04;;;;;;;3.10;1.33;;;22.80;99.90;;;;;;4910219;29;20605;-80
2022/07/29 10:51:58;;;;;;;3.83;1.00;;;22.90;99.60;;;;;;4899272;29;20036;-81
2022/07/29 10:54:44;;;;;;;3.42;0.93;;;23.10;99.70;;;;;;4892297;29;20049;-80
2022/07/29 10:57:28;;;;;;;3.55;1.00;;;23.10;99.60;;;;;;4889073;29;20052;-80
2022/07/29 11:00:08;;;;;;;4.13;1.10;;;22.90;99.90;;;;;;4901683;29;20048;-80
2022/07/29 11:02:34;;;;;;;2.63;0.88;;;22.90;99.40;;;;;;4886751;29;20448;-80
2022/07/29 11:05:08;;;;;;;7.03;1.33;;;22.80;99.20;;;;;;4895826;29;20044;-80
2022/07/29 11:07:35;;;;;;;3.53;1.00;;;22.80;99.40;;;;;;4899688;29;20487;-80
2022/07/29 11:10:13;;;;;;;3.08;0.75;;;22.70;99.50;;;;;;4916479;29;20052;-83
2022/07/29 11:12:38;;;;;;;4.10;1.02;;;22.60;99.90;;;;;;4892221;29;20044;-82
2022/07/29 11:15:16;;;;;;;4.60;1.00;;;22.50;99.90;;;;;;4898294;29;20538;-82
2022/07/29 11:17:56;;;;;;;3.38;0.73;;;22.40;99.90;;;;;;4891458;29;20055;-82
2022/07/29 11:20:36;;;;;;;4.30;0.85;;;22.40;99.90;;;;;;4901339;29;20048;-82
2022/07/29 11:23:24;;;;;;;3.28;0.77;;;22.20;99.90;;;;;;4885817;29;20075;-81
2022/07/29 11:26:21;;;;;;;3.75;1.48;;;22.10;99.90;;;;;;4901860;29;20048;-82
2022/07/29 11:28:56;;;;;;;3.25;1.00;;;21.90;99.90;;;;;;4902968;29;20104;-82
2022/07/29 11:31:30;;;;;;;;;;;22.00;99.90;;;;;;4923677;29;20114;-82
2022/07/29 11:33:56;;;;;;;5.72;0.90;;;22.00;99.90;;;;;;4896104;29;19919;-82
2022/07/29 11:36:22;;;;;;;4.40;1.35;;;22.10;99.90;;;;;;4914760;29;20047;-82
2022/07/29 11:38:47;;;;;;;6.00;1.27;;;22.20;99.90;;;;;;4904299;29;20514;-83
2022/07/29 11:41:19;;;;;;;4.28;2.13;;;22.30;99.90;;;;;;4904933;29;20124;-83
2022/07/29 11:43:50;;;;;;;5.28;0.70;;;22.30;99.90;;;;;;4887716;29;20048;-83
2022/07/29 11:46:35;;;;;;;4.25;1.10;;;22.50;99.90;;;;;;4915901;29;20060;-82
2022/07/29 11:49:02;;;;;;;4.47;0.90;;;22.70;99.90;;;;;;4894206;29;20072;-82
2022/07/29 11:51:28;;;;;;;5.32;1.38;;;22.80;99.90;;;;;;4875391;29;20131;-82
2022/07/29 11:53:55;;;;;;;7.05;0.68;;;22.90;99.90;;;;;;4882354;29;20123;-83
2022/07/29 11:56:21;;;;;;;4.72;1.15;;;23.00;99.90;;;;;;4882377;29;20052;-82
2022/07/29 11:58:48;;;;;;;4.28;1.25;;;23.20;99.90;;;;;;4868493;29;20072;-83
2022/07/29 12:01:16;;;;;;;3.65;1.35;;;23.30;99.90;;;;;;4885396;29;20048;-83
2022/07/29 12:03:42;;;;;;;2.83;1.17;;;23.30;99.90;;;;;;4877213;29;20076;-82
2022/07/29 12:06:14;;;;;;;3.42;0.98;;;23.50;99.90;;;;;;4884882;29;20053;-82
2022/07/29 12:08:42;;;;;;;6.05;1.13;;;23.50;99.90;;;;;;4899376;29;20100;-82
2022/07/29 12:11:18;;;;;;;5.45;1.92;;;23.60;99.90;;;;;;4884853;29;20044;-81
2022/07/29 12:13:44;;;;;;;4.38;1.20;;;23.80;99.90;;;;;;4886454;29;20048;-82
2022/07/29 12:16:09;;;;;;;5.28;1.10;;;23.90;99.90;;;;;;4862748;29;20121;-82
2022/07/29 12:18:35;;;;;;;6.25;1.42;;;24.00;99.90;;;;;;4873221;29;20071;-82
2022/07/29 12:21:03;;;;;;;4.88;1.98;;;24.30;99.90;;;;;;4895957;29;20473;-81
2022/07/29 12:23:29;;;;;;;4.40;1.23;;;24.40;99.30;;;;;;4898460;29;20407;-81
2022/07/29 12:25:55;;;;;;;6.38;1.67;;;24.50;98.80;;;;;;4920062;29;20047;-81
2022/07/29 12:28:21;;;;;;;1.48;0.90;;;24.60;98.60;;;;;;4887878;29;20037;-81
2022/07/29 12:30:49;;;;;;;2.35;1.25;;;24.70;98.20;;;;;;4896220;29;20111;-82
2022/07/29 12:33:21;;;;;;;3.83;0.82;;;24.90;98.00;;;;;;4897704;29;20131;-81
2022/07/29 12:35:53;;;;;;;4.97;1.83;;;25.00;97.10;;;;;;4886377;29;20052;-82
2022/07/29 12:38:20;;;;;;;8.20;1.85;;;25.00;97.50;;;;;;4885579;29;20071;-81
2022/07/29 12:40:47;;;;;;;3.25;1.20;;;24.80;97.80;;;;;;4884320;29;20069;-82
2022/07/29 12:43:16;;;;;;;3.28;1.98;;;24.80;97.10;;;;;;4904555;29;20040;-81
2022/07/29 12:45:44;;;;;;;2.78;1.48;;;24.70;96.60;;;;;;4905342;29;20059;-81
2022/07/29 12:48:10;;;;;;;3.33;1.83;;;24.60;96.70;;;;;;4905270;29;20044;-81
2022/07/29 12:50:52;;;;;;;3.72;1.52;;;24.40;96.50;;;;;;4888925;29;20051;-81
2022/07/29 12:53:19;;;;;;;4.25;1.40;;;24.30;96.90;;;;;;4886264;29;20507;-82
2022/07/29 12:55:51;;;;;;;2.35;1.35;;;24.10;96.90;;;;;;4885916;29;20120;-82
2022/07/29 12:58:37;;;;;;;3.92;1.52;;;24.00;97.70;;;;;;4885138;29;20397;-82